Time;durP1;ratioP1;P1;durP2;ratioP2;P2;SDS_P1;SDS_P2;PMS_P1;PMS_P2;Temp;Humidity;BMP_temperature;BMP_pressure;BME280_temperature;BME280_humidity;BME280_pressure;Samples;Min_cycle;Max_cycle;Signal;HPM_P1;HPM_P2
2024/02/11 00:01:09;;;;;;;226.05;212.02;;;9.90;99.90;;;;;;5032133;28;20033;-78
2024/02/11 00:03:37;;;;;;;197.18;184.38;;;9.90;99.90;;;;;;5032487;28;20042;-78
2024/02/11 00:06:04;;;;;;;208.18;194.85;;;10.00;99.90;;;;;;5033375;28;20032;-78
2024/02/11 00:08:30;;;;;;;212.10;198.63;;;9.90;99.90;;;;;;5032284;28;20046;-78
2024/02/11 00:10:56;;;;;;;216.63;202.45;;;10.00;99.90;;;;;;5032199;28;20037;-78
2024/02/11 00:13:23;;;;;;;221.90;208.43;;;10.00;99.90;;;;;;5033291;28;20049;-78
2024/02/11 00:15:49;;;;;;;246.75;231.48;;;10.00;99.90;;;;;;5032111;28;20037;-80
2024/02/11 00:18:17;;;;;;;248.65;232.05;;;9.90;99.90;;;;;;5033594;28;20044;-78
2024/02/11 00:20:43;;;;;;;231.68;216.63;;;9.90;99.90;;;;;;5032506;28;20017;-78
2024/02/11 00:23:09;;;;;;;277.80;260.38;;;9.90;99.90;;;;;;5033093;28;20037;-78
2024/02/11 00:25:35;;;;;;;281.25;262.63;;;9.90;99.90;;;;;;5030666;28;20041;-79
2024/02/11 00:28:01;;;;;;;257.30;240.68;;;9.80;99.90;;;;;;5031661;28;20045;-79
2024/02/11 00:30:28;;;;;;;288.35;269.67;;;9.80;99.90;;;;;;5032074;28;20040;-78
2024/02/11 00:32:56;;;;;;;285.67;266.63;;;9.80;99.90;;;;;;5030945;28;20042;-78
2024/02/11 00:35:23;;;;;;;296.65;276.40;;;9.80;99.90;;;;;;5016929;28;20542;-78
2024/02/11 00:37:49;;;;;;;310.20;289.38;;;9.80;99.90;;;;;;5031266;28;20068;-78
2024/02/11 00:40:16;;;;;;;278.73;260.95;;;9.70;99.90;;;;;;5032651;28;20025;-78
2024/02/11 00:42:45;;;;;;;242.70;227.55;;;9.80;99.90;;;;;;5032037;28;20049;-78
2024/02/11 00:45:14;;;;;;;274.65;257.08;;;9.80;99.90;;;;;;5030582;28;20048;-79
2024/02/11 00:47:40;;;;;;;281.17;263.15;;;9.80;99.90;;;;;;5033100;28;20041;-78
2024/02/11 00:50:11;;;;;;;274.42;255.85;;;9.80;99.90;;;;;;5032851;28;20398;-78
2024/02/11 00:52:41;;;;;;;292.83;273.48;;;9.90;99.90;;;;;;5032726;28;20057;-78
2024/02/11 00:55:11;;;;;;;302.00;282.08;;;9.80;99.90;;;;;;5032533;28;20025;-78
2024/02/11 00:57:37;;;;;;;282.77;265.35;;;9.80;99.90;;;;;;5032131;28;20471;-79
2024/02/11 01:00:09;;;;;;;263.48;247.43;;;9.90;99.90;;;;;;5032256;28;20033;-78
2024/02/11 01:02:36;;;;;;;260.83;244.43;;;9.90;99.90;;;;;;5030913;28;20057;-78
2024/02/11 01:05:03;;;;;;;264.92;248.43;;;9.90;99.90;;;;;;5032654;28;20026;-79
2024/02/11 01:07:30;;;;;;;279.08;261.42;;;9.90;99.90;;;;;;5031306;28;20476;-79
2024/02/11 01:09:57;;;;;;;228.93;214.02;;;10.00;99.90;;;;;;5032677;28;20022;-79
2024/02/11 01:12:23;;;;;;;253.05;236.38;;;9.90;99.90;;;;;;5031848;28;20041;-78
2024/02/11 01:14:50;;;;;;;211.20;198.20;;;9.90;99.90;;;;;;5031241;28;20041;-79
2024/02/11 01:17:19;;;;;;;238.13;222.60;;;9.90;99.90;;;;;;5031018;28;20034;-79
2024/02/11 01:19:46;;;;;;;202.73;189.77;;;9.90;99.90;;;;;;5032095;28;20037;-78
2024/02/11 01:22:13;;;;;;;180.50;168.95;;;9.90;99.90;;;;;;5030820;28;20046;-78
2024/02/11 01:24:40;;;;;;;220.30;206.38;;;9.90;99.90;;;;;;5032447;28;20045;-79
2024/02/11 01:27:06;;;;;;;217.38;202.93;;;9.80;99.90;;;;;;5030417;28;20037;-79
2024/02/11 01:29:32;;;;;;;200.07;187.13;;;9.80;99.90;;;;;;5030769;28;20045;-79
2024/02/11 01:31:58;;;;;;;236.38;220.57;;;9.80;99.90;;;;;;5031340;28;20037;-79
2024/02/11 01:34:25;;;;;;;209.00;195.60;;;9.90;99.90;;;;;;5032191;28;20033;-79
2024/02/11 01:36:51;;;;;;;229.45;215.30;;;9.80;99.90;;;;;;5031828;28;20043;-79
2024/02/11 01:39:17;;;;;;;275.88;258.73;;;9.80;99.90;;;;;;5039109;28;20031;-79
2024/02/11 01:41:43;;;;;;;329.70;308.23;;;9.80;99.90;;;;;;5038377;28;20409;-79
2024/02/11 01:44:09;;;;;;;311.45;290.83;;;9.80;99.90;;;;;;5030977;28;20038;-78
2024/02/11 01:46:38;;;;;;;295.52;275.80;;;9.80;99.90;;;;;;5031289;28;20045;-79
2024/02/11 01:49:04;;;;;;;274.38;256.20;;;9.80;99.90;;;;;;5032003;28;20038;-78
2024/02/11 01:51:32;;;;;;;287.35;268.13;;;9.80;99.90;;;;;;5031935;28;20041;-79
2024/02/11 01:54:03;;;;;;;346.45;323.17;;;9.80;99.90;;;;;;5030655;28;20030;-79
2024/02/11 01:56:29;;;;;;;286.30;267.38;;;9.80;99.90;;;;;;5031220;28;20037;-79
2024/02/11 01:58:56;;;;;;;272.25;254.88;;;9.80;99.90;;;;;;5032234;28;20114;-79
2024/02/11 02:01:24;;;;;;;298.85;279.98;;;9.80;99.90;;;;;;5030570;28;20414;-79
2024/02/11 02:03:50;;;;;;;307.60;287.88;;;9.70;99.90;;;;;;5014718;28;20049;-79
2024/02/11 02:06:17;;;;;;;268.20;251.48;;;9.80;99.90;;;;;;5031466;28;20030;-79
2024/02/11 02:08:43;;;;;;;331.50;309.55;;;9.80;99.90;;;;;;5030267;28;20651;-79
2024/02/11 02:11:10;;;;;;;335.77;313.70;;;9.70;99.90;;;;;;5030835;28;20049;-79
2024/02/11 02:13:37;;;;;;;301.92;282.67;;;9.70;99.90;;;;;;5030147;28;20037;-79
2024/02/11 02:16:03;;;;;;;270.02;253.20;;;9.80;99.90;;;;;;5029711;28;21576;-79
2024/02/11 02:18:34;;;;;;;276.75;259.85;;;9.70;99.90;;;;;;5031913;28;20025;-79
2024/02/11 02:21:06;;;;;;;300.08;281.70;;;9.70;99.90;;;;;;5031218;28;20022;-78
2024/02/11 02:23:32;;;;;;;300.48;281.25;;;9.60;99.90;;;;;;5031464;28;20033;-79
2024/02/11 02:26:02;;;;;;;275.77;258.85;;;9.70;99.90;;;;;;5031092;28;20036;-79
2024/02/11 02:28:28;;;;;;;299.42;280.80;;;9.70;99.90;;;;;;5030621;28;20033;-78
2024/02/11 02:30:54;;;;;;;295.60;276.73;;;9.70;99.90;;;;;;5030884;28;20045;-79
2024/02/11 02:33:20;;;;;;;284.65;266.98;;;9.70;99.90;;;;;;5031648;28;20048;-79
2024/02/11 02:35:46;;;;;;;318.92;298.48;;;9.70;99.90;;;;;;5031225;28;20462;-79
2024/02/11 02:38:12;;;;;;;276.73;259.58;;;9.80;99.90;;;;;;5030979;28;20044;-79
2024/02/11 02:40:38;;;;;;;280.02;261.55;;;9.70;99.90;;;;;;5029231;28;20037;-80
2024/02/11 02:43:10;;;;;;;312.05;292.15;;;9.70;99.90;;;;;;5030107;28;20421;-79
2024/02/11 02:45:37;;;;;;;257.10;240.55;;;9.80;99.90;;;;;;5030456;28;20042;-79
2024/02/11 02:48:05;;;;;;;248.90;233.80;;;9.80;99.90;;;;;;5030962;28;20045;-79
2024/02/11 02:50:31;;;;;;;256.42;239.82;;;9.80;99.90;;;;;;5030196;28;20036;-79
2024/02/11 02:52:57;;;;;;;319.88;299.83;;;9.80;99.90;;;;;;5035008;28;20046;-79
2024/02/11 02:55:25;;;;;;;250.90;235.82;;;9.80;99.90;;;;;;5032676;28;20042;-79
2024/02/11 02:57:51;;;;;;;336.90;314.88;;;9.80;99.90;;;;;;5035866;28;20402;-79
2024/02/11 03:00:18;;;;;;;309.95;289.67;;;9.90;99.90;;;;;;5032851;28;20041;-79
2024/02/11 03:02:45;;;;;;;322.70;302.65;;;9.80;99.90;;;;;;5027631;28;20398;-79
2024/02/11 03:05:11;;;;;;;314.92;295.48;;;9.90;99.90;;;;;;5026147;28;20021;-80
2024/02/11 03:07:40;;;;;;;235.65;220.73;;;9.90;99.90;;;;;;5032740;28;20044;-79
2024/02/11 03:10:07;;;;;;;228.57;213.13;;;9.90;99.90;;;;;;5033446;28;20029;-79
2024/02/11 03:12:33;;;;;;;217.00;202.68;;;9.90;99.90;;;;;;5032870;28;20026;-79
2024/02/11 03:14:59;;;;;;;231.68;217.30;;;9.90;99.90;;;;;;5031893;28;20034;-79
2024/02/11 03:17:25;;;;;;;216.80;203.88;;;9.90;99.90;;;;;;5032475;28;20041;-80
2024/02/11 03:19:51;;;;;;;248.90;232.40;;;9.90;99.90;;;;;;5033228;28;20470;-79
2024/02/11 03:22:17;;;;;;;264.77;247.73;;;9.90;99.90;;;;;;5032304;28;20037;-79
2024/02/11 03:24:44;;;;;;;254.52;238.07;;;9.80;99.90;;;;;;5032786;28;20041;-79
2024/02/11 03:27:10;;;;;;;289.88;271.60;;;9.80;99.90;;;;;;5033033;28;20108;-80
2024/02/11 03:29:37;;;;;;;313.20;293.33;;;9.80;99.90;;;;;;5033109;28;20470;-80
2024/02/11 03:32:04;;;;;;;356.75;333.13;;;9.80;99.90;;;;;;5032011;28;20044;-79
2024/02/11 03:34:30;;;;;;;324.38;303.73;;;9.80;99.90;;;;;;5033065;28;20033;-79
2024/02/11 03:36:56;;;;;;;362.75;338.50;;;9.80;99.90;;;;;;5033038;28;20040;-79
2024/02/11 03:39:22;;;;;;;325.77;303.60;;;9.80;99.90;;;;;;5032832;28;20042;-79
2024/02/11 03:41:49;;;;;;;335.73;314.08;;;9.70;99.90;;;;;;5033112;28;20049;-79
2024/02/11 03:44:17;;;;;;;292.75;272.58;;;9.80;99.90;;;;;;5034270;28;20099;-79
2024/02/11 03:46:43;;;;;;;259.33;242.68;;;9.80;99.90;;;;;;5033115;28;20502;-80
2024/02/11 03:49:09;;;;;;;185.35;174.20;;;9.70;99.90;;;;;;5033869;28;20037;-79
2024/02/11 03:51:35;;;;;;;246.20;230.63;;;9.70;99.90;;;;;;5033252;28;20034;-80
2024/02/11 03:54:01;;;;;;;213.55;199.23;;;9.70;99.90;;;;;;5033730;28;20056;-79
2024/02/11 03:56:29;;;;;;;200.35;187.23;;;9.70;99.90;;;;;;5032812;28;20048;-79
2024/02/11 03:58:55;;;;;;;236.75;221.73;;;9.70;99.90;;;;;;5032696;28;20470;-79
2024/02/11 04:01:21;;;;;;;199.52;187.07;;;9.70;99.90;;;;;;5032805;28;20044;-79
2024/02/11 04:03:47;;;;;;;204.73;192.02;;;9.70;99.90;;;;;;5033444;28;20056;-79
2024/02/11 04:06:16;;;;;;;372.23;347.52;;;9.60;99.90;;;;;;5031885;28;20037;-80
2024/02/11 04:08:42;;;;;;;214.55;201.38;;;9.60;99.90;;;;;;5032139;28;20053;-79
2024/02/11 04:11:12;;;;;;;221.50;207.57;;;9.60;99.90;;;;;;5033088;28;20052;-80
2024/02/11 04:13:38;;;;;;;276.80;259.92;;;9.60;99.90;;;;;;5033102;28;20049;-80
2024/02/11 04:16:15;;;;;;;293.40;273.88;;;9.60;99.90;;;;;;5030545;28;20038;-80
2024/02/11 04:18:45;;;;;;;244.82;229.63;;;9.60;99.90;;;;;;5032309;28;20053;-80
2024/02/11 04:21:11;;;;;;;239.10;223.45;;;9.60;99.90;;;;;;5032658;28;20040;-79
2024/02/11 04:23:40;;;;;;;228.85;214.38;;;9.70;99.90;;;;;;5033401;28;20041;-80
2024/02/11 04:26:08;;;;;;;289.30;269.40;;;9.70;99.90;;;;;;5032865;28;20033;-80
2024/02/11 04:28:37;;;;;;;301.00;280.95;;;9.60;99.90;;;;;;5032775;28;20045;-80
2024/02/11 04:31:10;;;;;;;276.38;258.60;;;9.70;99.90;;;;;;5032118;28;20034;-80
2024/02/11 04:33:40;;;;;;;318.95;297.23;;;9.60;99.90;;;;;;5032694;28;20052;-80
2024/02/11 04:36:13;;;;;;;329.15;307.13;;;9.60;99.90;;;;;;5026980;28;20034;-80
2024/02/11 04:38:39;;;;;;;385.92;360.38;;;9.70;99.90;;;;;;5028953;28;20049;-80
2024/02/11 04:41:05;;;;;;;296.52;277.67;;;9.70;99.90;;;;;;5022513;28;20057;-80
2024/02/11 04:43:34;;;;;;;251.77;235.82;;;9.70;99.90;;;;;;5032933;28;20049;-80
2024/02/11 04:46:04;;;;;;;301.20;281.23;;;9.70;99.90;;;;;;5032133;28;20052;-80
2024/02/11 04:48:33;;;;;;;291.67;272.85;;;9.70;99.90;;;;;;5031164;28;20048;-80
2024/02/11 04:50:59;;;;;;;269.05;251.68;;;9.80;99.90;;;;;;5032274;28;20382;-80
2024/02/11 04:53:29;;;;;;;227.35;213.60;;;9.80;99.90;;;;;;5013014;28;20050;-80
2024/02/11 04:55:57;;;;;;;240.85;225.73;;;9.70;99.90;;;;;;5019257;28;20048;-80
2024/02/11 04:58:26;;;;;;;261.70;244.40;;;9.70;99.90;;;;;;5032431;28;20045;-80
2024/02/11 05:00:53;;;;;;;310.02;290.35;;;9.70;99.90;;;;;;5032121;28;20033;-80
2024/02/11 05:03:19;;;;;;;201.75;188.90;;;9.70;99.90;;;;;;5032754;28;20041;-80
2024/02/11 05:05:46;;;;;;;325.85;303.30;;;9.70;99.90;;;;;;5030340;28;20034;-80
2024/02/11 05:08:16;;;;;;;289.83;271.02;;;9.60;99.90;;;;;;5030469;28;20056;-80
2024/02/11 05:10:43;;;;;;;304.88;284.95;;;9.60;99.90;;;;;;5032036;28;20041;-80
2024/02/11 05:13:11;;;;;;;262.67;245.50;;;9.60;99.90;;;;;;5030395;28;20395;-80
2024/02/11 05:15:38;;;;;;;170.00;159.38;;;9.60;99.90;;;;;;5031810;28;20026;-80
2024/02/11 05:18:04;;;;;;;214.55;201.68;;;9.60;99.90;;;;;;5031719;28;20390;-80
2024/02/11 05:20:31;;;;;;;200.70;188.43;;;9.60;99.90;;;;;;5031870;28;20028;-80
2024/02/11 05:22:58;;;;;;;195.52;183.38;;;9.50;99.90;;;;;;5032218;28;20038;-80
2024/02/11 05:25:25;;;;;;;216.88;202.95;;;9.50;99.90;;;;;;5030863;28;20386;-80
2024/02/11 05:28:00;;;;;;;216.32;202.77;;;9.50;99.90;;;;;;5031217;28;20030;-80
2024/02/11 05:30:27;;;;;;;223.68;209.10;;;9.50;99.90;;;;;;5029695;28;20064;-80
2024/02/11 05:32:54;;;;;;;258.83;242.15;;;9.50;99.90;;;;;;5031403;28;20049;-80
2024/02/11 05:35:23;;;;;;;205.77;193.50;;;9.50;99.90;;;;;;5031785;28;20032;-80
2024/02/11 05:37:57;;;;;;;291.08;271.40;;;9.50;99.90;;;;;;5031898;28;20033;-80
2024/02/11 05:40:28;;;;;;;316.95;295.63;;;9.50;99.90;;;;;;5014010;28;20050;-80
2024/02/11 05:42:55;;;;;;;245.30;230.35;;;9.50;99.90;;;;;;5030793;28;20042;-80
2024/02/11 05:45:21;;;;;;;262.38;245.85;;;9.40;99.90;;;;;;5031391;28;20123;-80
2024/02/11 05:47:48;;;;;;;236.15;221.40;;;9.40;99.90;;;;;;5031712;28;20037;-80
2024/02/11 05:50:14;;;;;;;161.60;150.90;;;9.40;99.90;;;;;;5030011;28;20049;-80
2024/02/11 05:52:40;;;;;;;241.02;225.80;;;9.40;99.90;;;;;;5031990;28;20045;-80
2024/02/11 05:55:09;;;;;;;250.63;234.38;;;9.40;99.90;;;;;;5031800;28;20052;-80
2024/02/11 05:57:37;;;;;;;216.00;202.63;;;9.40;99.90;;;;;;5029764;28;20040;-80
2024/02/11 06:00:11;;;;;;;320.73;300.13;;;9.40;99.90;;;;;;5030199;28;20033;-79
2024/02/11 06:02:39;;;;;;;300.35;280.10;;;9.40;99.90;;;;;;5011645;28;20037;-79
2024/02/11 06:05:06;;;;;;;319.70;298.65;;;9.40;99.90;;;;;;5030577;28;20037;-80
2024/02/11 06:07:34;;;;;;;303.63;283.98;;;9.40;99.90;;;;;;5030109;28;20041;-81
2024/02/11 06:10:01;;;;;;;321.55;300.63;;;9.40;99.90;;;;;;5032099;28;20060;-80
2024/02/11 06:12:27;;;;;;;382.00;354.02;;;9.40;99.90;;;;;;5030923;28;20021;-80
2024/02/11 06:14:53;;;;;;;345.25;322.70;;;9.40;99.90;;;;;;5031915;28;20037;-80
2024/02/11 06:17:20;;;;;;;225.98;212.15;;;9.40;99.90;;;;;;5030894;28;20517;-80
2024/02/11 06:19:46;;;;;;;262.98;246.52;;;9.40;99.90;;;;;;5031790;28;20041;-79
2024/02/11 06:22:13;;;;;;;254.43;239.23;;;9.40;99.90;;;;;;5031447;28;20033;-80
2024/02/11 06:24:39;;;;;;;228.45;214.50;;;9.40;99.90;;;;;;5031242;28;20502;-80
2024/02/11 06:27:05;;;;;;;248.13;233.27;;;9.40;99.90;;;;;;5034031;28;20025;-80
2024/02/11 06:29:31;;;;;;;283.00;265.38;;;9.40;99.90;;;;;;5035314;28;20391;-80
2024/02/11 06:31:58;;;;;;;291.27;273.35;;;9.40;99.90;;;;;;5032567;28;20036;-80
2024/02/11 06:34:26;;;;;;;239.70;225.20;;;9.40;99.90;;;;;;5034834;28;20041;-80
2024/02/11 06:36:53;;;;;;;233.05;218.88;;;9.40;99.90;;;;;;5034777;28;20418;-80
2024/02/11 06:39:21;;;;;;;223.48;209.93;;;9.40;99.90;;;;;;5035321;28;20025;-79
2024/02/11 06:41:47;;;;;;;252.73;237.40;;;9.40;99.90;;;;;;5034785;28;20053;-80
2024/02/11 06:44:18;;;;;;;230.65;217.23;;;9.40;99.90;;;;;;5035364;28;20037;-80
2024/02/11 06:46:44;;;;;;;177.30;166.23;;;9.30;99.90;;;;;;5033596;28;20407;-80
2024/02/11 06:49:10;;;;;;;219.52;206.02;;;9.30;99.90;;;;;;5035117;28;20037;-80
2024/02/11 06:51:36;;;;;;;269.70;252.15;;;9.40;99.90;;;;;;5034702;28;20478;-80
2024/02/11 06:54:03;;;;;;;278.10;261.05;;;9.40;99.90;;;;;;5035137;28;20037;-80
2024/02/11 06:56:29;;;;;;;290.98;272.23;;;9.40;99.90;;;;;;5034930;28;20025;-79
2024/02/11 06:58:56;;;;;;;242.50;227.25;;;9.40;99.90;;;;;;5035205;28;20490;-80
2024/02/11 07:01:23;;;;;;;341.50;319.75;;;9.40;99.90;;;;;;5033842;28;20541;-80
2024/02/11 07:03:51;;;;;;;340.27;316.65;;;9.40;99.90;;;;;;5034746;28;20379;-80
2024/02/11 07:06:17;;;;;;;255.63;239.85;;;9.40;99.90;;;;;;5034872;28;20485;-80
2024/02/11 07:08:43;;;;;;;252.18;236.35;;;9.40;99.90;;;;;;5035007;28;20033;-80
2024/02/11 07:11:11;;;;;;;232.27;218.15;;;9.40;99.90;;;;;;5034538;28;20088;-80
2024/02/11 07:13:40;;;;;;;256.13;240.60;;;9.40;99.90;;;;;;5034886;28;20469;-80
2024/02/11 07:16:08;;;;;;;259.83;244.13;;;9.40;99.90;;;;;;5033664;28;20045;-80
2024/02/11 07:18:36;;;;;;;250.45;235.05;;;9.50;99.90;;;;;;5034307;28;20045;-80
2024/02/11 07:21:02;;;;;;;255.38;239.30;;;9.50;99.90;;;;;;5033420;28;20026;-80
2024/02/11 07:23:28;;;;;;;258.90;242.38;;;9.50;99.90;;;;;;5034561;28;20045;-80
2024/02/11 07:25:55;;;;;;;239.15;224.38;;;9.50;99.90;;;;;;5034420;28;20379;-79
2024/02/11 07:28:22;;;;;;;190.40;179.05;;;9.50;99.90;;;;;;5034442;28;20041;-79
2024/02/11 07:30:48;;;;;;;269.90;253.52;;;9.50;99.90;;;;;;5033246;28;20041;-80
2024/02/11 07:33:18;;;;;;;214.48;201.07;;;9.50;99.90;;;;;;5033380;28;20478;-79
2024/02/11 07:35:46;;;;;;;251.25;235.80;;;9.50;99.90;;;;;;5034246;28;20029;-79
2024/02/11 07:38:12;;;;;;;256.08;240.88;;;9.50;99.90;;;;;;5030841;28;20038;-80
2024/02/11 07:40:38;;;;;;;310.25;290.02;;;9.60;99.90;;;;;;5028737;28;20060;-80
2024/02/11 07:43:05;;;;;;;257.95;243.15;;;9.50;99.90;;;;;;5032011;28;20037;-79
2024/02/11 07:45:31;;;;;;;270.80;254.32;;;9.60;99.90;;;;;;5033987;28;20033;-79
2024/02/11 07:47:57;;;;;;;303.30;283.88;;;9.60;99.90;;;;;;5034099;28;20033;-79
2024/02/11 07:50:24;;;;;;;282.83;264.27;;;9.60;99.90;;;;;;5034172;28;20033;-81
2024/02/11 07:52:50;;;;;;;285.92;268.58;;;9.60;99.90;;;;;;5023953;28;20414;-81
2024/02/11 07:55:16;;;;;;;264.50;248.55;;;9.60;99.90;;;;;;5033566;28;20037;-80
2024/02/11 07:57:42;;;;;;;279.40;262.27;;;9.60;99.90;;;;;;5028465;28;20034;-80
2024/02/11 08:00:11;;;;;;;297.63;278.98;;;9.60;99.90;;;;;;5026175;28;20033;-80
2024/02/11 08:02:37;;;;;;;261.48;245.20;;;9.70;99.90;;;;;;5063855;28;20382;-81
2024/02/11 08:05:03;;;;;;;290.48;271.58;;;9.70;99.90;;;;;;5033749;28;20040;-82
2024/02/11 08:07:30;;;;;;;292.58;274.25;;;9.70;99.90;;;;;;5033452;28;20423;-81
2024/02/11 08:09:56;;;;;;;324.70;302.92;;;9.70;99.90;;;;;;5027065;28;20045;-82
2024/02/11 08:12:22;;;;;;;359.33;334.50;;;9.80;99.90;;;;;;5025797;28;20029;-82
2024/02/11 08:14:48;;;;;;;306.52;286.48;;;9.80;99.90;;;;;;5030411;28;20037;-81
2024/02/11 08:17:14;;;;;;;298.15;278.25;;;9.80;99.90;;;;;;5050294;28;20034;-82
2024/02/11 08:19:40;;;;;;;307.52;286.58;;;9.80;99.90;;;;;;5032400;28;20094;-82
2024/02/11 08:22:06;;;;;;;360.13;335.33;;;9.90;99.90;;;;;;5052567;28;20044;-82
2024/02/11 08:24:33;;;;;;;259.02;242.73;;;10.00;99.90;;;;;;5028351;28;20049;-81
2024/02/11 08:26:59;;;;;;;267.40;250.57;;;10.20;99.90;;;;;;5032800;28;20045;-82
2024/02/11 08:29:26;;;;;;;216.20;202.95;;;10.30;99.90;;;;;;5031830;28;20052;-82
2024/02/11 08:31:52;;;;;;;1999.90;999.90;;;10.40;99.90;;;;;;5026434;28;20081;-82
2024/02/11 08:34:19;;;;;;;1999.90;999.90;;;10.60;99.90;;;;;;5032187;28;20036;-82
2024/02/11 08:36:45;;;;;;;1999.90;999.90;;;10.60;99.90;;;;;;5029490;28;20053;-82
2024/02/11 08:39:11;;;;;;;1999.90;999.90;;;10.50;99.90;;;;;;5013357;28;20040;-82
2024/02/11 08:41:37;;;;;;;1999.90;999.90;;;10.50;99.90;;;;;;5017195;28;20049;-82
2024/02/11 08:44:05;;;;;;;1999.90;999.90;;;10.50;99.90;;;;;;5017487;28;20041;-82
2024/02/11 08:46:31;;;;;;;193.90;182.63;;;10.50;99.90;;;;;;5023805;28;20045;-82
2024/02/11 08:48:58;;;;;;;672.03;410.45;;;10.60;99.90;;;;;;5025650;28;20049;-82
2024/02/11 08:51:24;;;;;;;291.58;271.23;;;10.80;99.90;;;;;;5023865;28;20037;-82
2024/02/11 08:53:50;;;;;;;1999.90;999.90;;;11.00;99.90;;;;;;5026998;28;20736;-81
2024/02/11 08:56:17;;;;;;;1999.90;999.90;;;11.10;99.90;;;;;;5022003;28;20064;-83
2024/02/11 08:58:43;;;;;;;1999.90;999.90;;;11.30;99.90;;;;;;5030515;28;20045;-83
2024/02/11 09:01:09;;;;;;;1999.90;999.90;;;11.40;99.90;;;;;;5031696;28;20045;-83
2024/02/11 09:03:38;;;;;;;1999.90;999.90;;;11.40;99.90;;;;;;5032527;28;20061;-83
2024/02/11 09:06:05;;;;;;;1999.90;999.90;;;11.50;99.90;;;;;;5031815;28;20048;-83
2024/02/11 09:08:32;;;;;;;1999.90;999.90;;;11.60;99.90;;;;;;5032377;28;20042;-83
2024/02/11 09:11:00;;;;;;;1999.90;999.90;;;11.70;99.90;;;;;;5031832;28;20050;-83
2024/02/11 09:13:26;;;;;;;1999.90;999.90;;;11.70;99.90;;;;;;5032385;28;20041;-82
2024/02/11 09:15:53;;;;;;;1999.90;999.90;;;11.80;99.90;;;;;;5031813;28;20425;-82
2024/02/11 09:18:19;;;;;;;1999.90;999.90;;;11.80;99.90;;;;;;5032728;28;20026;-83
2024/02/11 09:20:45;;;;;;;1999.90;999.90;;;11.90;99.90;;;;;;5014392;28;20060;-82
2024/02/11 09:23:12;;;;;;;1999.90;999.90;;;12.00;99.90;;;;;;5032356;28;20387;-82
2024/02/11 09:25:42;;;;;;;1999.90;999.90;;;12.10;99.90;;;;;;5031861;28;20466;-83
2024/02/11 09:28:08;;;;;;;1999.90;999.90;;;12.10;99.90;;;;;;5031975;28;20033;-83
2024/02/11 09:30:34;;;;;;;1999.90;999.90;;;12.10;99.90;;;;;;5031541;28;20475;-84
2024/02/11 09:33:00;;;;;;;1999.90;999.90;;;12.00;99.90;;;;;;5032518;28;20044;-84
2024/02/11 09:35:26;;;;;;;1999.90;999.90;;;11.90;99.90;;;;;;5030430;28;20387;-83
2024/02/11 09:37:53;;;;;;;1999.90;999.90;;;11.80;99.90;;;;;;5031649;28;20402;-83
2024/02/11 09:40:19;;;;;;;1999.90;999.90;;;11.70;99.90;;;;;;5031440;28;20030;-83
2024/02/11 09:42:45;;;;;;;1999.90;999.90;;;11.70;99.90;;;;;;5028805;28;20441;-83
2024/02/11 09:45:16;;;;;;;1999.90;999.90;;;11.60;99.90;;;;;;5030931;28;20038;-83
2024/02/11 09:47:52;;;;;;;1999.90;999.90;;;11.60;99.90;;;;;;5028050;28;20052;-82
2024/02/11 09:50:18;;;;;;;160.27;149.88;;;11.50;99.90;;;;;;5028088;28;20042;-83
2024/02/11 09:52:46;;;;;;;1999.90;999.90;;;11.50;99.90;;;;;;5031994;28;20032;-83
2024/02/11 09:55:12;;;;;;;1999.90;999.90;;;11.40;99.90;;;;;;5030228;28;20038;-84
2024/02/11 09:57:38;;;;;;;1999.90;999.90;;;11.40;99.90;;;;;;5012086;28;20045;-84
2024/02/11 10:00:07;;;;;;;1537.60;785.42;;;11.30;99.90;;;;;;5029968;28;20497;-83
2024/02/11 10:02:33;;;;;;;1999.90;999.90;;;11.30;99.90;;;;;;5033415;28;20044;-83
2024/02/11 10:05:00;;;;;;;1999.90;999.90;;;11.40;99.90;;;;;;5034570;28;20038;-84
2024/02/11 10:07:28;;;;;;;1999.90;999.90;;;11.60;99.90;;;;;;5033490;28;20045;-84
2024/02/11 10:09:56;;;;;;;1999.90;999.90;;;11.70;99.90;;;;;;5036161;28;20498;-83
2024/02/11 10:12:22;;;;;;;1999.90;999.90;;;11.70;99.90;;;;;;5050862;28;20042;-84
2024/02/11 10:14:53;;;;;;;1999.90;999.90;;;11.70;99.90;;;;;;5021862;28;20053;-84
2024/02/11 10:17:19;;;;;;;1999.90;999.90;;;11.60;99.90;;;;;;5032564;28;20041;-84
2024/02/11 10:19:45;;;;;;;1999.90;999.90;;;11.60;99.90;;;;;;5035465;28;20307;-83
2024/02/11 10:22:12;;;;;;;1999.90;999.90;;;11.60;99.90;;;;;;5035628;28;20046;-83
2024/02/11 10:24:39;;;;;;;1999.90;999.90;;;11.60;99.90;;;;;;5018202;28;20375;-83
2024/02/11 10:27:05;;;;;;;1999.90;999.90;;;11.60;99.90;;;;;;5033887;28;20049;-83
2024/02/11 10:29:31;;;;;;;1999.90;999.90;;;11.70;99.90;;;;;;5034811;28;20037;-84
2024/02/11 10:31:57;;;;;;;1999.90;999.90;;;11.80;99.90;;;;;;5032910;28;20034;-76
2024/02/11 10:34:23;;;;;;;1999.90;999.90;;;11.90;99.90;;;;;;5033131;28;20025;-76
2024/02/11 10:36:49;;;;;;;1999.90;999.90;;;12.00;99.90;;;;;;5030823;28;20033;-75
2024/02/11 10:39:15;;;;;;;1999.90;999.90;;;12.10;99.90;;;;;;5031783;28;20033;-76
2024/02/11 10:41:41;;;;;;;1999.90;999.90;;;12.20;99.90;;;;;;5015556;28;20060;-76
2024/02/11 10:44:10;;;;;;;1999.90;999.90;;;12.20;99.90;;;;;;5033663;28;20056;-76
2024/02/11 10:46:36;;;;;;;1999.90;999.90;;;12.20;99.90;;;;;;5027659;28;20037;-76
2024/02/11 10:49:03;;;;;;;1999.90;999.90;;;12.30;99.90;;;;;;5030462;28;20600;-76
2024/02/11 10:51:32;;;;;;;1999.90;999.90;;;12.40;99.90;;;;;;5029612;28;20052;-76
2024/02/11 10:54:01;;;;;;;1999.90;999.90;;;12.60;99.90;;;;;;5032568;28;20034;-78
2024/02/11 10:56:30;;;;;;;1999.90;999.90;;;12.70;99.90;;;;;;5032341;28;20033;-76
2024/02/11 10:59:15;;;;;;;1999.90;999.90;;;12.70;99.90;;;;;;5023316;28;20037;-76
2024/02/11 11:01:41;;;;;;;1999.90;999.90;;;12.80;99.90;;;;;;5057520;28;20048;-76
2024/02/11 11:04:10;;;;;;;1999.90;999.90;;;12.80;99.90;;;;;;5020335;28;20049;-77
2024/02/11 11:06:36;;;;;;;1999.90;999.90;;;13.00;99.90;;;;;;5023069;28;20051;-77
2024/02/11 11:09:02;;;;;;;1999.90;999.90;;;12.90;99.90;;;;;;5063290;28;20400;-76
2024/02/11 11:11:29;;;;;;;1999.90;999.90;;;12.90;99.90;;;;;;5057631;28;20037;-76
2024/02/11 11:14:00;;;;;;;1999.90;999.90;;;12.90;99.90;;;;;;5033233;28;20034;-76
2024/02/11 11:16:38;;;;;;;1999.90;999.90;;;12.90;99.90;;;;;;5030709;28;20490;-77
2024/02/11 11:19:12;;;;;;;1999.90;999.90;;;12.90;99.90;;;;;;5031163;28;20381;-76
2024/02/11 11:21:38;;;;;;;1999.90;999.90;;;12.80;99.90;;;;;;5024334;28;20041;-77
2024/02/11 11:24:04;;;;;;;1999.90;999.90;;;12.70;99.90;;;;;;5034010;28;20037;-77
2024/02/11 11:26:31;;;;;;;1999.90;999.90;;;12.70;99.90;;;;;;5032099;28;20379;-76
2024/02/11 11:29:03;;;;;;;1999.90;999.90;;;12.70;99.90;;;;;;5034166;28;20478;-77
2024/02/11 11:31:37;;;;;;;1999.90;999.90;;;12.60;99.90;;;;;;5031482;28;20382;-77
2024/02/11 11:34:03;;;;;;;1999.90;999.90;;;12.60;99.90;;;;;;5033528;28;20037;-77
2024/02/11 11:36:29;;;;;;;1999.90;999.90;;;12.60;99.90;;;;;;5031560;28;20383;-77
2024/02/11 11:39:14;;;;;;;1999.90;999.90;;;12.60;99.90;;;;;;5023373;28;20043;-77
2024/02/11 11:41:40;;;;;;;1999.90;999.90;;;12.50;99.90;;;;;;5029837;28;20045;-77
2024/02/11 11:44:06;;;;;;;1999.90;999.90;;;12.60;99.90;;;;;;5033559;28;20045;-77
2024/02/11 11:46:32;;;;;;;1999.90;999.90;;;12.70;99.90;;;;;;5032562;28;20399;-77
2024/02/11 11:48:59;;;;;;;1999.90;999.90;;;12.90;99.90;;;;;;5033182;28;20351;-77
2024/02/11 11:51:26;;;;;;;1999.90;999.90;;;12.90;99.90;;;;;;5032866;28;20030;-77
2024/02/11 11:53:52;;;;;;;1999.90;999.90;;;13.00;99.90;;;;;;5030105;28;20046;-78
2024/02/11 11:56:20;;;;;;;1999.90;999.90;;;13.10;99.90;;;;;;5032354;28;20033;-79
2024/02/11 11:58:50;;;;;;;1999.90;999.90;;;13.30;99.90;;;;;;5031943;28;20049;-77
2024/02/11 12:01:17;;;;;;;1999.90;999.90;;;13.30;99.90;;;;;;5030793;28;20040;-77
2024/02/11 12:03:44;;;;;;;1999.90;999.90;;;13.50;99.90;;;;;;5049025;28;20026;-78
2024/02/11 12:06:11;;;;;;;1999.90;999.90;;;13.50;99.90;;;;;;5022408;28;20046;-78
2024/02/11 12:08:37;;;;;;;1999.90;999.90;;;13.40;99.90;;;;;;5031734;28;20037;-78
2024/02/11 12:11:05;;;;;;;1999.90;999.90;;;13.40;99.90;;;;;;5026813;28;20048;-77